Saturday, October 20, 2018, 10:01 PM EDT
Back to Local

KGFL, Floyd Bennett Memorial Airport

Location: Queensbury, NY, United States Lat: 43.333
Local Time: 10:01 PM EDT ( 2:01 GMT) Lon: -73.617
Time Zone: US/Eastern Elev: 328 ft

Show me the last for .
Show Decoded

2018-10-20 20:53 METAR KGFL 210053Z AUTO 26004KT 10SM FEW120 11/01 A2959 RMK AO2 SLP022 T01060006
                 =
2018-10-20 19:53 METAR KGFL 202353Z AUTO 28006KT 10SM CLR 11/01 A2959 RMK AO2 SLP022 T01110006
                 10161 20094 52012 =
2018-10-20 18:53 METAR KGFL 202253Z AUTO 00000KT 10SM CLR 09/02 A2958 RMK AO2 SLP019 T00940017 =
2018-10-20 17:53 METAR KGFL 202153Z AUTO 28005KT 10SM CLR 12/00 A2956 RMK AO2 SLP013 T01220000 =
2018-10-20 16:53 METAR KGFL 202053Z AUTO 26009KT 10SM CLR 15/M01 A2955 RMK AO2 SLP009 T01501011
                 55005 =
2018-10-20 15:53 METAR KGFL 201953Z AUTO 27008G16KT 220V300 10SM CLR 16/01 A2955 RMK AO2 SLP008
                 T01560011 =
2018-10-20 14:53 METAR KGFL 201853Z AUTO 24009G17KT 10SM CLR 16/02 A2955 RMK AO2 SLP009 T01560022
                 =
2018-10-20 13:53 METAR KGFL 201753Z AUTO 23011G22KT 10SM CLR 14/02 A2957 RMK AO2 SLP014 T01440022
                 10156 20100 58014 =
2018-10-20 12:53 METAR KGFL 201653Z AUTO 26010G20KT 10SM CLR 15/04 A2959 RMK AO2 SLP020 T01500039
                 =
2018-10-20 11:53 METAR KGFL 201553Z AUTO 23008G18KT 190V270 10SM CLR 14/04 A2960 RMK AO2 SLP027
                 T01390044 =
2018-10-20 10:53 METAR KGFL 201453Z AUTO 24013G21KT 10SM SCT047 13/06 A2961 RMK AO2 SLP029
                 T01330061 50004 =
2018-10-20 09:53 METAR KGFL 201353Z AUTO 17007KT 10SM BKN040 OVC049 12/08 A2961 RMK AO2 SLP031
                 T01170078 =
2018-10-20 08:53 METAR KGFL 201253Z AUTO 20006KT 10SM OVC039 11/07 A2961 RMK AO2 SLP030 T01060072
                 =
2018-10-20 07:53 METAR KGFL 201153Z AUTO 20008KT 10SM OVC043 10/07 A2960 RMK AO2 SLP025 T01000067
                 10100 20089 55003 =
2018-10-20 06:53 METAR KGFL 201053Z AUTO 18009KT 10SM BKN044 OVC060 09/06 A2959 RMK AO2 SLP023
                 T00940061 =
2018-10-20 05:53 METAR KGFL 200953Z AUTO 20006KT 10SM OVC048 09/06 A2959 RMK AO2 SLP023 T00940061
                 =
2018-10-20 04:53 METAR KGFL 200853Z AUTO 19007KT 10SM OVC050 09/06 A2960 RMK AO2 SLP027 T00940056
                 58033 =
2018-10-20 03:53 METAR KGFL 200753Z AUTO 20007KT 10SM BKN049 OVC060 09/05 A2964 RMK AO2 SLP038
                 T00940050 =
2018-10-20 02:53 METAR KGFL 200653Z AUTO 19008KT 10SM BKN060 OVC080 09/04 A2967 RMK AO2 SLP051
                 T00940044 =
2018-10-20 01:53 METAR KGFL 200553Z AUTO 22007KT 10SM BKN070 BKN110 09/03 A2970 RMK AO2 SLP060
                 T00940028 10111 20094 56032 =
2018-10-20 00:53 METAR KGFL 200453Z AUTO 20005KT 10SM FEW110 09/02 A2972 RMK AO2 SLP069 T00940022
                 401441033 =
2018-10-19 23:53 METAR KGFL 200353Z AUTO 20007KT 10SM CLR 10/02 A2976 RMK AO2 SLP081 T01000022 =
2018-10-19 22:53 METAR KGFL 200253Z AUTO 20008KT 10SM CLR 11/03 A2980 RMK AO2 SLP093 T01060033
                 56027 =

Support USWX by starting your Amazon purchase here.